createdAt,value
2018-02-21T00:00:49.972Z,2.92
2018-02-21T00:03:25.051Z,2.94
2018-02-21T00:05:59.919Z,2.93
2018-02-21T00:08:34.561Z,2.95
2018-02-21T00:11:09.809Z,3.00
2018-02-21T00:13:44.955Z,3.02
2018-02-21T00:16:20.556Z,3.02
2018-02-21T00:18:55.675Z,3.00
2018-02-21T00:21:30.125Z,2.97
2018-02-21T00:24:04.943Z,2.96
2018-02-21T00:26:39.655Z,2.94
2018-02-21T00:29:14.890Z,2.87
2018-02-21T00:31:49.650Z,2.72
2018-02-21T00:34:24.039Z,2.55
2018-02-21T00:37:00.042Z,2.38
2018-02-21T00:39:35.601Z,2.23
2018-02-21T00:42:10.201Z,2.15
2018-02-21T00:44:45.128Z,2.10
2018-02-21T00:47:19.998Z,1.99
2018-02-21T00:49:54.888Z,1.91
2018-02-21T00:52:30.047Z,1.84
2018-02-21T00:55:05.276Z,1.78
2018-02-21T00:57:40.647Z,1.73
2018-02-21T01:00:15.975Z,1.68
2018-02-21T01:02:50.974Z,1.62
2018-02-21T01:05:26.575Z,1.56
2018-02-21T01:08:01.927Z,1.51
2018-02-21T01:10:37.003Z,1.46
2018-02-21T01:13:12.152Z,1.44
2018-02-21T01:15:47.639Z,1.44
2018-02-21T01:18:22.672Z,1.43
2018-02-21T01:20:57.791Z,1.38
2018-02-21T01:23:32.774Z,1.41
2018-02-21T01:26:08.072Z,1.35
2018-02-21T01:28:43.201Z,1.35
2018-02-21T01:31:17.997Z,1.35
2018-02-21T01:33:53.716Z,1.33
2018-02-21T01:36:28.775Z,1.29
2018-02-21T01:39:03.111Z,1.24
2018-02-21T01:41:38.199Z,1.24
2018-02-21T01:44:13.367Z,1.23
2018-02-21T01:46:48.059Z,1.24
2018-02-21T01:49:23.075Z,1.20
2018-02-21T01:52:00.068Z,1.17
2018-02-21T01:54:34.795Z,1.12
2018-02-21T01:57:10.056Z,1.11
2018-02-21T01:59:45.231Z,1.14
2018-02-21T02:02:19.959Z,1.16
2018-02-21T02:04:55.224Z,1.21
2018-02-21T02:07:29.939Z,1.27
2018-02-21T02:10:05.248Z,1.27
2018-02-21T02:12:40.684Z,1.25
2018-02-21T02:15:16.068Z,1.17
2018-02-21T02:17:51.272Z,1.07
2018-02-21T02:20:26.828Z,1.01
2018-02-21T02:23:02.067Z,0.97
2018-02-21T02:25:37.014Z,0.92
2018-02-21T02:28:11.372Z,0.88
2018-02-21T02:30:46.859Z,0.84
2018-02-21T02:33:21.932Z,0.84
2018-02-21T02:35:57.297Z,0.84
2018-02-21T02:38:39.682Z,0.83
2018-02-21T02:41:15.080Z,0.81
2018-02-21T02:43:49.807Z,0.78
2018-02-21T02:46:25.065Z,0.74
2018-02-21T02:49:00.826Z,0.72
2018-02-21T02:51:37.773Z,0.72
2018-02-21T02:54:13.080Z,0.70
2018-02-21T02:56:48.055Z,0.75
2018-02-21T02:59:22.886Z,0.82
2018-02-21T03:01:57.364Z,0.88
2018-02-21T03:04:31.992Z,0.85
2018-02-21T03:07:06.443Z,0.77
2018-02-21T03:09:41.935Z,0.72
2018-02-21T03:12:16.615Z,0.70
2018-02-21T03:14:51.075Z,0.66
2018-02-21T03:17:26.183Z,0.62
2018-02-21T03:20:01.366Z,0.58
2018-02-21T03:22:36.980Z,0.57
2018-02-21T03:25:12.188Z,0.55
2018-02-21T03:27:47.118Z,0.54
2018-02-21T03:30:22.076Z,0.52
2018-02-21T03:32:57.495Z,0.48
2018-02-21T03:35:33.064Z,0.43
2018-02-21T03:38:08.312Z,0.44
2018-02-21T03:40:42.951Z,0.46
2018-02-21T03:43:18.350Z,0.49
2018-02-21T03:45:53.191Z,0.48
2018-02-21T03:48:28.348Z,0.49
2018-02-21T03:51:02.971Z,0.51
2018-02-21T03:53:38.016Z,0.53
2018-02-21T03:56:13.289Z,0.55
2018-02-21T03:58:49.035Z,0.57
2018-02-21T04:01:23.493Z,0.57
2018-02-21T04:03:58.179Z,0.54
2018-02-21T04:06:33.048Z,0.49
2018-02-21T04:09:08.313Z,0.48
2018-02-21T04:11:43.178Z,0.46
2018-02-21T04:14:18.056Z,0.42
2018-02-21T04:16:53.215Z,0.38
2018-02-21T04:19:28.423Z,0.30
2018-02-21T04:22:04.215Z,0.28
2018-02-21T04:24:39.251Z,0.29
2018-02-21T04:27:14.503Z,0.26
2018-02-21T04:29:49.079Z,0.19
2018-02-21T04:32:24.426Z,0.15
2018-02-21T04:35:00.436Z,0.16
2018-02-21T04:37:35.695Z,0.18
2018-02-21T04:40:10.948Z,0.21
2018-02-21T04:42:46.851Z,0.25
2018-02-21T04:45:22.139Z,0.22
2018-02-21T04:47:57.235Z,0.23
2018-02-21T04:50:32.522Z,0.28
2018-02-21T04:53:07.227Z,0.25
2018-02-21T04:55:42.504Z,0.17
2018-02-21T04:58:22.851Z,0.07
2018-02-21T05:00:57.851Z,-0.04
2018-02-21T05:03:33.307Z,-0.09
2018-02-21T05:06:08.587Z,-0.08
2018-02-21T05:08:43.234Z,-0.02
2018-02-21T05:11:18.453Z,0.03
2018-02-21T05:13:53.486Z,0.03
2018-02-21T05:16:31.403Z,0.00
2018-02-21T05:19:06.517Z,0.02
2018-02-21T05:21:41.180Z,0.04
2018-02-21T05:24:16.459Z,0.06
2018-02-21T05:26:51.195Z,0.06
2018-02-21T05:29:25.554Z,0.05
2018-02-21T05:32:00.571Z,0.03
2018-02-21T05:34:35.617Z,-0.02
2018-02-21T05:37:10.488Z,-0.08
2018-02-21T05:39:45.395Z,-0.12
2018-02-21T05:42:20.659Z,-0.20
2018-02-21T05:44:55.390Z,-0.26
2018-02-21T05:47:30.379Z,-0.31
2018-02-21T05:50:04.395Z,-0.35
2018-02-21T05:52:40.267Z,-0.36
2018-02-21T05:55:15.591Z,-0.37
2018-02-21T05:57:50.187Z,-0.37
2018-02-21T06:00:25.294Z,-0.38
2018-02-21T06:03:00.704Z,-0.41
2018-02-21T06:05:35.764Z,-0.41
2018-02-21T06:08:11.091Z,-0.39
2018-02-21T06:10:46.416Z,-0.33
2018-02-21T06:13:21.592Z,-0.28
2018-02-21T06:15:57.162Z,-0.29
2018-02-21T06:18:31.863Z,-0.24
2018-02-21T06:21:06.866Z,-0.21
2018-02-21T06:23:42.394Z,-0.24
2018-02-21T06:26:17.687Z,-0.28
2018-02-21T06:28:52.427Z,-0.33
2018-02-21T06:31:27.443Z,-0.38
2018-02-21T06:34:02.744Z,-0.36
2018-02-21T06:36:37.627Z,-0.32
2018-02-21T06:39:12.604Z,-0.32
2018-02-21T06:41:47.539Z,-0.36
2018-02-21T06:44:22.374Z,-0.39
2018-02-21T06:46:57.643Z,-0.45
2018-02-21T06:49:32.794Z,-0.49
2018-02-21T06:52:07.796Z,-0.57
2018-02-21T06:54:42.791Z,-0.63
2018-02-21T06:57:17.748Z,-0.52
2018-02-21T06:59:52.600Z,-0.22
2018-02-21T07:02:36.670Z,0.00
2018-02-21T07:05:12.019Z,0.19
2018-02-21T07:07:47.560Z,0.27
2018-02-21T07:10:22.460Z,0.35
2018-02-21T07:12:57.628Z,0.31
2018-02-21T07:15:32.297Z,0.29
2018-02-21T07:18:07.743Z,0.48
2018-02-21T07:20:42.843Z,0.52
2018-02-21T07:23:17.719Z,0.50
2018-02-21T07:25:52.585Z,0.47
2018-02-21T07:28:27.436Z,0.50
2018-02-21T07:31:02.771Z,0.57
2018-02-21T07:33:37.895Z,0.60
2018-02-21T07:36:12.720Z,0.65
2018-02-21T07:38:47.491Z,0.74
2018-02-21T07:41:22.764Z,0.78
2018-02-21T07:43:58.021Z,0.75
2018-02-21T07:46:32.691Z,0.72
2018-02-21T07:49:07.764Z,0.82
2018-02-21T07:51:42.479Z,1.01
2018-02-21T07:54:17.780Z,1.20
2018-02-21T07:56:52.615Z,1.33
2018-02-21T07:59:27.903Z,1.52
2018-02-21T08:02:02.756Z,1.67
2018-02-21T08:04:37.512Z,1.81
2018-02-21T08:07:12.761Z,1.97
2018-02-21T08:09:47.752Z,2.10
2018-02-21T08:12:22.647Z,2.20
2018-02-21T08:14:57.928Z,2.32
2018-02-21T08:17:32.959Z,2.41
2018-02-21T08:20:08.046Z,2.50
2018-02-21T08:22:43.111Z,2.64
2018-02-21T08:25:18.772Z,2.83
2018-02-21T08:27:54.091Z,3.01
2018-02-21T08:30:28.635Z,3.22
2018-02-21T08:33:03.916Z,3.42
2018-02-21T08:35:41.963Z,3.67
2018-02-21T08:38:17.728Z,3.80
2018-02-21T08:40:52.596Z,4.02
2018-02-21T08:43:27.587Z,4.25
2018-02-21T08:46:02.169Z,4.37
2018-02-21T08:48:36.828Z,4.40
2018-02-21T08:51:11.671Z,4.48
2018-02-21T08:53:46.654Z,4.54
2018-02-21T08:56:21.944Z,4.60
2018-02-21T08:58:57.240Z,4.62
2018-02-21T09:01:31.994Z,4.71
2018-02-21T09:04:07.051Z,4.78
2018-02-21T09:06:42.205Z,4.70
2018-02-21T09:09:17.811Z,4.79
2018-02-21T09:11:52.856Z,4.93
2018-02-21T09:14:27.695Z,5.07
2018-02-21T09:17:02.732Z,5.23
2018-02-21T09:19:37.007Z,5.42
2018-02-21T09:22:12.180Z,5.56
2018-02-21T09:24:47.620Z,5.70
2018-02-21T09:27:22.679Z,5.86
2018-02-21T09:29:57.880Z,6.03
2018-02-21T09:32:32.707Z,6.24
2018-02-21T09:35:08.031Z,6.43
2018-02-21T09:37:42.863Z,6.63
2018-02-21T09:40:17.919Z,6.83
2018-02-21T09:42:52.644Z,7.07
2018-02-21T09:45:27.860Z,7.28
2018-02-21T09:48:03.069Z,7.43
2018-02-21T09:50:37.907Z,7.65
2018-02-21T09:53:13.041Z,7.87
2018-02-21T09:55:48.038Z,8.00
2018-02-21T09:58:22.792Z,8.17
2018-02-21T10:00:58.117Z,8.41
2018-02-21T10:03:33.387Z,8.57
2018-02-21T10:06:08.947Z,8.68
2018-02-21T10:08:43.785Z,8.87
2018-02-21T10:11:18.899Z,9.08
2018-02-21T10:13:53.832Z,9.10
2018-02-21T10:16:28.811Z,9.25
2018-02-21T10:19:03.301Z,9.40
2018-02-21T10:21:38.435Z,9.62
2018-02-21T10:24:14.619Z,9.47
2018-02-21T10:26:49.220Z,9.39
2018-02-21T10:29:23.922Z,9.37
2018-02-21T10:31:59.199Z,9.35
2018-02-21T10:34:34.284Z,9.10
2018-02-21T10:37:09.533Z,8.96
2018-02-21T10:39:44.976Z,8.94
2018-02-21T10:42:19.893Z,9.02
2018-02-21T10:44:55.043Z,8.61
2018-02-21T10:47:30.228Z,8.74
2018-02-21T10:50:05.515Z,9.20
2018-02-21T10:52:40.976Z,9.54
2018-02-21T10:55:15.819Z,9.49
2018-02-21T10:57:51.083Z,9.58
2018-02-21T11:00:32.291Z,9.77
2018-02-21T11:03:07.549Z,10.00
2018-02-21T11:05:43.019Z,10.15
2018-02-21T11:08:17.663Z,10.16
2018-02-21T11:10:52.327Z,10.04
2018-02-21T11:13:26.996Z,10.04
2018-02-21T11:16:01.919Z,10.32
2018-02-21T11:18:37.016Z,10.46
2018-02-21T11:21:11.707Z,10.52
2018-02-21T11:23:47.085Z,10.60
2018-02-21T11:26:21.767Z,10.14
2018-02-21T11:28:57.172Z,9.92
2018-02-21T11:31:32.135Z,10.15
2018-02-21T11:34:06.938Z,10.57
2018-02-21T11:36:41.992Z,10.83
2018-02-21T11:39:17.184Z,11.13
2018-02-21T11:41:52.165Z,11.27
2018-02-21T11:44:27.379Z,11.33
2018-02-21T11:47:02.435Z,11.49
2018-02-21T11:49:37.387Z,11.27
2018-02-21T11:52:12.621Z,11.11
2018-02-21T11:54:47.719Z,10.92
2018-02-21T11:57:23.024Z,11.10
2018-02-21T11:59:58.179Z,11.42
2018-02-21T12:02:33.791Z,11.12
2018-02-21T12:05:08.660Z,10.54
2018-02-21T12:07:43.623Z,9.83
2018-02-21T12:10:19.228Z,9.83
2018-02-21T12:12:54.151Z,9.84
2018-02-21T12:15:29.331Z,10.22
2018-02-21T12:18:03.987Z,10.26
2018-02-21T12:20:38.426Z,10.22
2018-02-21T12:23:13.067Z,10.21
2018-02-21T12:25:48.260Z,9.83
2018-02-21T12:28:23.399Z,9.72
2018-02-21T12:30:58.155Z,9.64
2018-02-21T12:33:33.235Z,9.81
2018-02-21T12:36:08.295Z,9.91
2018-02-21T12:38:43.142Z,9.84
2018-02-21T12:41:23.687Z,9.56
2018-02-21T12:43:58.117Z,9.29
2018-02-21T12:46:33.576Z,9.44
2018-02-21T12:49:09.278Z,9.87
2018-02-21T12:51:44.335Z,9.86
2018-02-21T12:54:19.580Z,9.59
2018-02-21T12:56:54.800Z,9.62
2018-02-21T12:59:30.299Z,9.75
2018-02-21T13:02:05.227Z,10.11
2018-02-21T13:04:39.771Z,10.45
2018-02-21T13:07:15.831Z,10.69
2018-02-21T13:09:52.054Z,10.31
2018-02-21T13:12:26.690Z,10.21
2018-02-21T13:15:01.799Z,10.06
2018-02-21T13:17:36.744Z,9.61
2018-02-21T13:20:11.325Z,9.34
2018-02-21T13:22:46.599Z,8.88
2018-02-21T13:25:21.779Z,8.54
2018-02-21T13:27:56.829Z,8.48
2018-02-21T13:30:31.927Z,8.49
2018-02-21T13:33:07.179Z,8.80
2018-02-21T13:35:42.155Z,9.00
2018-02-21T13:38:17.635Z,9.23
2018-02-21T13:40:52.615Z,9.30
2018-02-21T13:43:27.559Z,9.29
2018-02-21T13:46:02.007Z,9.25
2018-02-21T13:48:36.714Z,9.16
2018-02-21T13:51:12.363Z,8.87
2018-02-21T13:53:47.183Z,8.86
2018-02-21T13:56:21.687Z,8.97
2018-02-21T13:58:56.439Z,8.95
2018-02-21T14:01:31.748Z,9.10
2018-02-21T14:04:07.591Z,9.22
2018-02-21T14:06:42.629Z,9.29
2018-02-21T14:09:17.764Z,9.14
2018-02-21T14:11:52.674Z,9.11
2018-02-21T14:14:27.938Z,9.22
2018-02-21T14:17:02.751Z,9.30
2018-02-21T14:19:37.451Z,9.40
2018-02-21T14:22:12.535Z,9.44
2018-02-21T14:24:47.604Z,9.34
2018-02-21T14:27:23.459Z,9.08
2018-02-21T14:29:58.716Z,8.96
2018-02-21T14:32:34.167Z,8.95
2018-02-21T14:35:09.428Z,8.94
2018-02-21T14:37:44.691Z,9.00
2018-02-21T14:40:19.598Z,9.03
2018-02-21T14:42:53.967Z,9.08
2018-02-21T14:45:28.579Z,9.06
2018-02-21T14:48:03.540Z,9.02
2018-02-21T14:50:38.575Z,8.94
2018-02-21T14:53:13.764Z,8.78
2018-02-21T14:55:48.803Z,8.66
2018-02-21T14:58:23.995Z,8.58
2018-02-21T15:00:58.685Z,8.55
2018-02-21T15:03:34.495Z,8.46
2018-02-21T15:06:09.859Z,8.31
2018-02-21T15:08:44.599Z,8.16
2018-02-21T15:11:19.635Z,8.04
2018-02-21T15:13:54.711Z,8.01
2018-02-21T15:16:29.960Z,7.94
2018-02-21T15:19:05.653Z,7.82
2018-02-21T15:21:40.626Z,7.75
2018-02-21T15:24:15.816Z,7.71
2018-02-21T15:26:50.874Z,7.75
2018-02-21T15:29:26.444Z,7.85
2018-02-21T15:32:01.933Z,7.87
2018-02-21T15:34:36.984Z,7.92
2018-02-21T15:37:12.032Z,7.97
2018-02-21T15:39:47.606Z,8.08
2018-02-21T15:42:22.571Z,8.07
2018-02-21T15:44:57.732Z,8.11
2018-02-21T15:47:33.271Z,8.10
2018-02-21T15:50:08.880Z,8.12
2018-02-21T15:52:43.835Z,8.10
2018-02-21T15:55:18.908Z,8.06
2018-02-21T15:57:53.608Z,7.99
2018-02-21T16:00:28.711Z,7.88
2018-02-21T16:03:04.003Z,7.85
2018-02-21T16:05:38.948Z,7.74
2018-02-21T16:08:14.008Z,7.74
2018-02-21T16:10:48.860Z,7.70
2018-02-21T16:13:23.871Z,7.67
2018-02-21T16:15:58.943Z,7.62
2018-02-21T16:18:34.252Z,7.55
2018-02-21T16:21:09.976Z,7.54
2018-02-21T16:23:44.315Z,7.50
2018-02-21T16:26:19.779Z,7.22
2018-02-21T16:28:54.796Z,7.15
2018-02-21T16:31:29.840Z,7.14
2018-02-21T16:34:04.603Z,7.13
2018-02-21T16:36:39.795Z,7.13
2018-02-21T16:39:15.039Z,7.15
2018-02-21T16:41:49.844Z,7.13
2018-02-21T16:44:24.867Z,7.07
2018-02-21T16:46:59.960Z,7.02
2018-02-21T16:49:35.095Z,7.00
2018-02-21T16:52:10.335Z,6.92
2018-02-21T16:54:45.667Z,6.88
2018-02-21T16:57:20.784Z,6.84
2018-02-21T16:59:55.799Z,6.77
2018-02-21T17:02:30.747Z,6.66
2018-02-21T17:05:05.920Z,6.52
2018-02-21T17:07:41.001Z,6.43
2018-02-21T17:10:16.731Z,6.35
2018-02-21T17:12:51.660Z,6.25
2018-02-21T17:15:26.747Z,6.21
2018-02-21T17:18:02.206Z,6.19
2018-02-21T17:20:36.827Z,6.10
2018-02-21T17:23:12.134Z,6.09
2018-02-21T17:25:46.939Z,6.08
2018-02-21T17:28:21.902Z,6.03
2018-02-21T17:30:56.250Z,6.00
2018-02-21T17:33:30.802Z,5.97
2018-02-21T17:36:06.051Z,5.98
2018-02-21T17:38:41.327Z,5.88
2018-02-21T17:41:21.975Z,5.74
2018-02-21T17:43:57.863Z,5.55
2018-02-21T17:46:32.253Z,5.48
2018-02-21T17:49:07.892Z,5.50
2018-02-21T17:51:43.076Z,5.48
2018-02-21T17:54:17.420Z,5.52
2018-02-21T17:56:52.878Z,5.53
2018-02-21T17:59:27.963Z,5.57
2018-02-21T18:02:03.135Z,5.56
2018-02-21T18:04:38.028Z,5.48
2018-02-21T18:07:13.207Z,5.41
2018-02-21T18:09:48.033Z,5.41
2018-02-21T18:12:23.052Z,5.42
2018-02-21T18:14:57.987Z,5.29
2018-02-21T18:17:32.339Z,5.23
2018-02-21T18:20:08.152Z,5.22
2018-02-21T18:22:43.401Z,5.17
2018-02-21T18:25:18.519Z,5.14
2018-02-21T18:27:53.047Z,5.13
2018-02-21T18:30:27.381Z,5.13
2018-02-21T18:33:02.397Z,5.10
2018-02-21T18:35:37.187Z,5.06
2018-02-21T18:38:12.359Z,4.99
2018-02-21T18:40:47.219Z,4.90
2018-02-21T18:43:22.279Z,4.85
2018-02-21T18:45:57.015Z,4.77
2018-02-21T18:48:32.167Z,4.73
2018-02-21T18:51:07.260Z,4.69
2018-02-21T18:53:41.616Z,4.63
2018-02-21T18:56:16.907Z,4.62
2018-02-21T18:58:52.099Z,4.63
2018-02-21T19:01:27.170Z,4.53
2018-02-21T19:04:02.555Z,4.53
2018-02-21T19:06:39.023Z,4.53
2018-02-21T19:09:14.327Z,4.48
2018-02-21T19:11:49.226Z,4.49
2018-02-21T19:14:24.244Z,4.48
2018-02-21T19:16:59.203Z,4.46
2018-02-21T19:19:34.563Z,4.44
2018-02-21T19:22:10.008Z,4.41
2018-02-21T19:24:45.165Z,4.34
2018-02-21T19:27:20.843Z,4.29
2018-02-21T19:29:55.480Z,4.25
2018-02-21T19:32:30.124Z,4.24
2018-02-21T19:35:04.660Z,4.20
2018-02-21T19:37:39.284Z,4.22
2018-02-21T19:40:14.278Z,4.17
2018-02-21T19:42:49.416Z,4.14
2018-02-21T19:45:24.107Z,4.11
2018-02-21T19:47:59.337Z,4.10
2018-02-21T19:50:34.204Z,4.15
2018-02-21T19:53:09.485Z,4.17
2018-02-21T19:55:45.183Z,4.18
2018-02-21T19:58:20.398Z,4.17
2018-02-21T20:00:55.330Z,4.17
2018-02-21T20:03:30.926Z,4.15
2018-02-21T20:06:05.560Z,4.14
2018-02-21T20:08:40.637Z,4.13
2018-02-21T20:11:15.041Z,4.11
2018-02-21T20:13:50.164Z,4.09
2018-02-21T20:16:25.255Z,4.09
2018-02-21T20:19:00.435Z,4.15
2018-02-21T20:21:35.298Z,4.21
2018-02-21T20:24:10.053Z,4.27
2018-02-21T20:26:44.599Z,4.30
2018-02-21T20:29:19.563Z,4.33
2018-02-21T20:31:55.248Z,4.37
2018-02-21T20:34:30.336Z,4.44
2018-02-21T20:37:04.898Z,4.46
2018-02-21T20:39:40.343Z,4.40
2018-02-21T20:42:15.228Z,4.34
2018-02-21T20:44:50.268Z,4.30
2018-02-21T20:47:24.761Z,4.28
2018-02-21T20:49:59.937Z,4.28
2018-02-21T20:52:34.565Z,4.33
2018-02-21T20:55:09.347Z,4.38
2018-02-21T20:57:43.803Z,4.42
2018-02-21T21:00:18.391Z,4.42
2018-02-21T21:02:53.571Z,4.40
2018-02-21T21:05:28.339Z,4.36
2018-02-21T21:08:03.449Z,4.30
2018-02-21T21:10:37.839Z,4.19
2018-02-21T21:13:12.813Z,4.16
2018-02-21T21:15:47.514Z,4.07
2018-02-21T21:18:22.659Z,4.03
2018-02-21T21:20:57.962Z,3.97
2018-02-21T21:23:33.483Z,3.94
2018-02-21T21:26:08.657Z,3.93
2018-02-21T21:28:43.488Z,3.96
2018-02-21T21:31:18.755Z,4.01
2018-02-21T21:33:53.500Z,3.99
2018-02-21T21:36:28.660Z,3.82
2018-02-21T21:39:03.927Z,3.80
2018-02-21T21:41:38.565Z,3.77
2018-02-21T21:44:12.867Z,3.82
2018-02-21T21:46:47.923Z,3.80
2018-02-21T21:49:22.555Z,3.73
2018-02-21T21:51:57.611Z,3.70
2018-02-21T21:54:32.507Z,3.67
2018-02-21T21:57:07.787Z,3.56
2018-02-21T21:59:42.735Z,3.40
2018-02-21T22:02:17.865Z,3.20
2018-02-21T22:04:53.155Z,3.13
2018-02-21T22:07:28.076Z,3.11
2018-02-21T22:10:03.623Z,3.17
2018-02-21T22:12:38.787Z,3.30
2018-02-21T22:15:13.656Z,3.41
2018-02-21T22:17:48.863Z,3.46
2018-02-21T22:20:23.820Z,3.43
2018-02-21T22:22:58.823Z,3.40
2018-02-21T22:25:33.919Z,3.41
2018-02-21T22:28:09.484Z,3.44
2018-02-21T22:30:44.612Z,3.47
2018-02-21T22:33:19.601Z,3.49
2018-02-21T22:35:54.583Z,3.53
2018-02-21T22:38:29.760Z,3.58
2018-02-21T22:41:04.000Z,3.59
2018-02-21T22:43:38.696Z,3.57
2018-02-21T22:46:13.864Z,3.50
2018-02-21T22:48:48.888Z,3.46
2018-02-21T22:51:23.348Z,3.46
2018-02-21T22:53:58.636Z,3.43
2018-02-21T22:56:33.671Z,3.44
2018-02-21T22:59:09.799Z,3.41
2018-02-21T23:01:44.947Z,3.41
2018-02-21T23:04:19.848Z,3.36
2018-02-21T23:06:54.631Z,3.30
2018-02-21T23:09:29.687Z,3.21
2018-02-21T23:12:04.167Z,3.20
2018-02-21T23:14:39.711Z,3.22
2018-02-21T23:17:14.677Z,3.23
2018-02-21T23:19:49.724Z,3.18
2018-02-21T23:22:24.687Z,3.14
2018-02-21T23:24:59.691Z,3.09
2018-02-21T23:27:35.040Z,3.05
2018-02-21T23:30:09.675Z,3.02
2018-02-21T23:32:44.911Z,2.99
2018-02-21T23:35:20.564Z,3.03
2018-02-21T23:37:55.848Z,3.00
2018-02-21T23:40:31.049Z,2.96
2018-02-21T23:43:06.268Z,2.92
2018-02-21T23:45:40.827Z,2.93
2018-02-21T23:48:16.019Z,2.93
2018-02-21T23:50:51.284Z,2.85
2018-02-21T23:53:26.640Z,2.79
2018-02-21T23:56:03.046Z,2.81
2018-02-21T23:58:38.039Z,2.85
